createdAt,value
2022-12-09T00:02:08.445Z,7.73
2022-12-09T00:07:11.294Z,7.95
2022-12-09T00:12:14.209Z,8.10
2022-12-09T00:17:16.998Z,6.40
2022-12-09T00:22:20.017Z,6.75
2022-12-09T00:27:23.080Z,9.53
2022-12-09T00:32:26.096Z,11.50
2022-12-09T00:37:29.731Z,11.68
2022-12-09T00:42:34.459Z,10.25
2022-12-09T00:47:37.395Z,11.45
2022-12-09T00:52:40.211Z,8.07
2022-12-09T00:57:43.190Z,15.25
2022-12-09T01:02:45.993Z,30.27
2022-12-09T01:07:49.120Z,19.60
2022-12-09T01:12:51.765Z,27.05
2022-12-09T01:17:54.712Z,26.73
2022-12-09T01:22:57.355Z,22.30
2022-12-09T01:28:01.633Z,20.02
2022-12-09T01:33:04.556Z,23.13
2022-12-09T01:38:07.957Z,22.80
2022-12-09T01:43:18.554Z,21.87
2022-12-09T01:48:25.048Z,22.35
2022-12-09T01:53:34.548Z,21.73
2022-12-09T01:58:37.371Z,18.42
2022-12-09T02:03:40.327Z,19.92
2022-12-09T02:08:44.895Z,17.07
2022-12-09T02:14:14.263Z,15.02
2022-12-09T02:20:02.118Z,16.77
2022-12-09T02:25:11.629Z,17.13
2022-12-09T02:30:24.020Z,16.63
2022-12-09T02:35:48.767Z,15.10
2022-12-09T02:40:54.886Z,13.15
2022-12-09T02:46:00.382Z,14.98
2022-12-09T02:51:08.952Z,14.52
2022-12-09T02:56:15.060Z,14.35
2022-12-09T03:02:16.848Z,14.90
2022-12-09T03:07:19.997Z,14.02
2022-12-09T03:12:25.191Z,13.45
2022-12-09T03:17:34.048Z,13.35
2022-12-09T03:22:40.597Z,13.65
2022-12-09T03:28:06.175Z,13.30
2022-12-09T03:33:10.377Z,12.95
2022-12-09T03:38:17.433Z,14.75
2022-12-09T03:43:26.101Z,12.38
2022-12-09T03:48:29.121Z,10.80
2022-12-09T03:53:48.659Z,13.60
2022-12-09T03:58:54.684Z,12.25
2022-12-09T04:03:58.313Z,12.30
2022-12-09T04:09:02.795Z,13.52
2022-12-09T04:14:10.423Z,11.82
2022-12-09T04:19:16.735Z,12.00
2022-12-09T04:24:19.560Z,12.13
2022-12-09T04:29:22.408Z,12.82
2022-12-09T04:34:25.274Z,12.85
2022-12-09T04:39:28.276Z,12.88
2022-12-09T04:44:31.060Z,10.87
2022-12-09T04:49:33.793Z,12.35
2022-12-09T04:54:36.682Z,13.00
2022-12-09T04:59:39.550Z,11.55
2022-12-09T05:04:47.600Z,11.48
2022-12-09T05:09:50.886Z,10.67
2022-12-09T05:14:54.120Z,14.38
2022-12-09T05:19:56.907Z,13.07
2022-12-09T05:24:59.932Z,10.75
2022-12-09T05:30:02.787Z,11.77
2022-12-09T05:35:06.381Z,10.50
2022-12-09T05:40:10.103Z,11.43
2022-12-09T05:45:13.248Z,10.80
2022-12-09T05:50:16.495Z,9.45
2022-12-09T05:55:19.698Z,9.95
2022-12-09T06:00:22.767Z,10.77
2022-12-09T06:05:25.669Z,10.25
2022-12-09T06:10:28.788Z,10.18
2022-12-09T06:15:33.672Z,11.38
2022-12-09T06:20:41.717Z,11.05
2022-12-09T06:25:46.458Z,9.10
2022-12-09T06:30:49.531Z,10.65
2022-12-09T06:35:52.731Z,10.38
2022-12-09T06:40:56.469Z,14.50
2022-12-09T06:45:59.469Z,14.77
2022-12-09T06:51:02.561Z,13.43
2022-12-09T06:56:11.785Z,13.57
2022-12-09T07:01:24.787Z,12.35
2022-12-09T07:06:39.557Z,12.57
2022-12-09T07:11:43.897Z,13.85
2022-12-09T07:16:47.329Z,12.87
2022-12-09T07:21:51.539Z,14.52
2022-12-09T07:26:54.516Z,10.07
2022-12-09T07:31:57.837Z,14.93
2022-12-09T07:37:01.212Z,12.55
2022-12-09T07:42:04.544Z,15.67
2022-12-09T07:47:19.912Z,13.60
2022-12-09T07:52:23.547Z,15.52
2022-12-09T07:57:26.743Z,15.68
2022-12-09T08:02:29.669Z,18.60
2022-12-09T08:07:37.334Z,17.63
2022-12-09T08:12:43.735Z,19.83
2022-12-09T08:17:47.234Z,18.73
2022-12-09T08:22:50.615Z,17.13
2022-12-09T08:27:53.623Z,19.33
2022-12-09T08:32:57.166Z,20.73
2022-12-09T08:38:00.273Z,28.42
2022-12-09T08:43:10.222Z,20.67
2022-12-09T08:48:13.523Z,26.25
2022-12-09T08:53:16.643Z,27.67
2022-12-09T08:58:19.388Z,26.97
2022-12-09T09:03:22.604Z,23.58
2022-12-09T09:08:25.968Z,19.38
2022-12-09T09:13:29.288Z,17.67
2022-12-09T09:18:32.520Z,18.48
2022-12-09T09:23:36.059Z,17.63
2022-12-09T09:28:39.981Z,16.38
2022-12-09T09:33:43.602Z,16.58
2022-12-09T09:38:48.420Z,14.77
2022-12-09T09:43:54.530Z,16.92
2022-12-09T09:48:59.151Z,16.47
2022-12-09T09:54:08.179Z,17.02
2022-12-09T09:59:21.295Z,16.85
2022-12-09T10:04:56.537Z,15.18
2022-12-09T10:10:19.640Z,16.27
2022-12-09T10:15:34.941Z,15.23
2022-12-09T10:20:38.507Z,14.52
2022-12-09T10:25:51.142Z,14.05
2022-12-09T10:30:55.969Z,12.73
2022-12-09T10:35:59.479Z,11.65
2022-12-09T10:41:54.081Z,11.43
2022-12-09T10:47:19.394Z,8.70
2022-12-09T10:52:28.416Z,8.70
2022-12-09T10:57:31.418Z,9.70
2022-12-09T11:02:35.705Z,9.55
2022-12-09T11:07:38.657Z,9.20
2022-12-09T11:12:42.294Z,9.52
2022-12-09T11:17:58.563Z,9.13
2022-12-09T11:23:13.562Z,9.48
2022-12-09T11:28:17.273Z,8.98
2022-12-09T11:33:29.785Z,8.47
2022-12-09T11:38:48.944Z,8.63
2022-12-09T11:43:55.521Z,7.78
2022-12-09T11:49:17.265Z,9.50
2022-12-09T11:54:30.275Z,8.32
2022-12-09T11:59:40.897Z,8.27
2022-12-09T12:05:22.042Z,8.38
2022-12-09T12:10:47.266Z,7.10
2022-12-09T12:16:00.745Z,6.70
2022-12-09T12:21:18.655Z,6.25
2022-12-09T12:26:32.065Z,5.90
2022-12-09T12:31:48.999Z,6.63
2022-12-09T12:37:34.853Z,6.40
2022-12-09T12:43:11.207Z,6.20
2022-12-09T12:48:27.135Z,7.15
2022-12-09T12:53:38.714Z,6.57
2022-12-09T12:59:05.835Z,7.25
2022-12-09T13:04:22.065Z,6.70
2022-12-09T13:09:46.365Z,7.60
2022-12-09T13:14:53.382Z,7.80
2022-12-09T13:20:00.987Z,7.93
2022-12-09T13:25:40.902Z,7.57
2022-12-09T13:31:13.740Z,6.88
2022-12-09T13:36:42.498Z,7.65
2022-12-09T13:42:04.480Z,6.35
2022-12-09T13:47:15.865Z,4.23
2022-12-09T13:52:43.326Z,5.97
2022-12-09T13:58:01.436Z,5.30
2022-12-09T14:03:29.936Z,5.90
2022-12-09T14:08:45.858Z,6.15
2022-12-09T14:13:48.835Z,7.30
2022-12-09T14:18:52.789Z,7.13
2022-12-09T14:24:09.258Z,6.30
2022-12-09T14:29:12.208Z,6.85
2022-12-09T14:35:03.986Z,8.15
2022-12-09T14:40:15.970Z,8.37
2022-12-09T14:45:44.449Z,6.90
2022-12-09T14:50:47.970Z,8.00
2022-12-09T14:55:51.577Z,8.45
2022-12-09T15:01:02.920Z,7.35
2022-12-09T15:06:12.448Z,7.57
2022-12-09T15:11:35.238Z,4.85
2022-12-09T15:16:38.306Z,7.28
2022-12-09T15:21:41.258Z,7.60
2022-12-09T15:26:55.419Z,7.40
2022-12-09T15:32:00.049Z,4.67
2022-12-09T15:37:06.408Z,6.97
2022-12-09T15:42:18.317Z,5.97
2022-12-09T15:47:43.058Z,4.18
2022-12-09T15:52:53.557Z,5.15
2022-12-09T15:58:00.790Z,5.77
2022-12-09T16:03:03.977Z,4.10
2022-12-09T16:08:07.178Z,6.32
2022-12-09T16:13:15.637Z,6.88
2022-12-09T16:18:46.118Z,6.45
2022-12-09T16:23:53.987Z,7.33
2022-12-09T16:29:05.339Z,6.75
2022-12-09T16:34:20.437Z,6.05
2022-12-09T16:39:26.089Z,7.78
2022-12-09T16:44:38.890Z,4.53
2022-12-09T16:49:45.667Z,8.03
2022-12-09T16:54:50.488Z,7.03
2022-12-09T16:59:53.812Z,5.88
2022-12-09T17:04:56.739Z,8.82
2022-12-09T17:10:00.771Z,5.28
2022-12-09T17:15:04.209Z,8.23
2022-12-09T17:20:08.224Z,6.75
2022-12-09T17:25:11.281Z,4.82
2022-12-09T17:30:14.509Z,6.88
2022-12-09T17:35:17.949Z,4.53
2022-12-09T17:40:21.130Z,4.97
2022-12-09T17:45:24.160Z,6.90
2022-12-09T17:50:27.275Z,6.10
2022-12-09T17:55:30.523Z,4.22
2022-12-09T18:00:34.090Z,4.50
2022-12-09T18:05:38.642Z,4.53
2022-12-09T18:10:42.410Z,4.40
2022-12-09T18:15:48.512Z,4.60
2022-12-09T18:20:54.728Z,5.03
2022-12-09T18:25:58.655Z,4.25
2022-12-09T18:31:06.296Z,6.80
2022-12-09T18:36:18.819Z,5.97
2022-12-09T18:41:24.991Z,5.00
2022-12-09T18:46:39.444Z,6.47
2022-12-09T18:51:44.439Z,5.05
2022-12-09T18:56:47.498Z,6.47
2022-12-09T19:01:51.108Z,1.13
2022-12-09T19:06:56.680Z,4.93
2022-12-09T19:12:16.531Z,4.28
2022-12-09T19:17:23.669Z,3.97
2022-12-09T19:22:26.711Z,4.03
2022-12-09T19:27:29.659Z,6.15
2022-12-09T19:32:52.485Z,3.97
2022-12-09T19:38:01.068Z,4.78
2022-12-09T19:43:04.339Z,5.05
2022-12-09T19:48:07.381Z,4.90
2022-12-09T19:53:10.340Z,5.25
2022-12-09T19:58:13.252Z,4.40
2022-12-09T20:03:16.048Z,4.60
2022-12-09T20:08:19.053Z,4.53
2022-12-09T20:13:24.209Z,4.37
2022-12-09T20:18:30.033Z,4.55
2022-12-09T20:23:34.410Z,3.75
2022-12-09T20:28:39.039Z,5.03
2022-12-09T20:33:41.979Z,5.10
2022-12-09T20:38:49.740Z,4.30
2022-12-09T20:43:55.656Z,4.63
2022-12-09T20:48:59.640Z,5.32
2022-12-09T20:54:03.263Z,4.57
2022-12-09T20:59:07.060Z,5.40
2022-12-09T21:04:09.999Z,4.27
2022-12-09T21:09:17.859Z,4.95
2022-12-09T21:14:20.999Z,4.63
2022-12-09T21:19:26.040Z,4.45
2022-12-09T21:24:29.050Z,4.53
2022-12-09T21:29:32.602Z,4.60
2022-12-09T21:34:36.208Z,5.38
2022-12-09T21:39:39.155Z,5.53
2022-12-09T21:44:42.683Z,4.88
2022-12-09T21:49:45.494Z,4.97
2022-12-09T21:54:55.011Z,4.63
2022-12-09T21:59:58.102Z,3.90
2022-12-09T22:05:01.088Z,5.97
2022-12-09T22:10:04.015Z,5.30
2022-12-09T22:15:07.418Z,5.15
2022-12-09T22:20:54.061Z,4.53
2022-12-09T22:25:35.041Z,4.38
2022-12-09T22:30:38.061Z,4.50
2022-12-09T22:35:40.888Z,4.90
2022-12-09T22:40:43.561Z,5.90
2022-12-09T22:45:46.387Z,5.50
2022-12-09T22:50:49.232Z,6.22
2022-12-09T22:55:52.057Z,6.75
2022-12-09T23:00:55.654Z,6.03
2022-12-09T23:06:01.530Z,4.68
2022-12-09T23:11:07.272Z,6.20
2022-12-09T23:16:16.297Z,6.20
2022-12-09T23:21:24.746Z,5.63
2022-12-09T23:26:31.336Z,5.82
2022-12-09T23:31:37.096Z,6.07
2022-12-09T23:36:42.632Z,6.43
2022-12-09T23:41:46.403Z,5.93
2022-12-09T23:46:49.663Z,6.55
2022-12-09T23:51:52.519Z,7.13
2022-12-09T23:56:55.224Z,6.75
